createdAt,value
2023-05-16T00:02:03.248Z,98835.80
2023-05-16T00:04:29.944Z,98833.23
2023-05-16T00:06:56.621Z,98832.72
2023-05-16T00:09:23.169Z,98834.94
2023-05-16T00:11:50.335Z,98835.98
2023-05-16T00:14:19.167Z,98835.73
2023-05-16T00:16:46.724Z,98842.00
2023-05-16T00:19:13.281Z,98838.94
2023-05-16T00:21:39.946Z,98846.63
2023-05-16T00:24:07.122Z,98849.31
2023-05-16T00:26:33.622Z,98848.11
2023-05-16T00:29:00.194Z,98846.90
2023-05-16T00:31:27.203Z,98843.66
2023-05-16T00:33:54.303Z,98847.13
2023-05-16T00:36:23.019Z,98847.13
2023-05-16T00:38:50.483Z,98849.91
2023-05-16T00:41:17.139Z,98847.13
2023-05-16T00:43:44.456Z,98846.55
2023-05-16T00:46:11.407Z,98847.90
2023-05-16T00:48:37.925Z,98844.32
2023-05-16T00:51:08.663Z,98839.94
2023-05-16T00:53:36.504Z,98840.57
2023-05-16T00:56:03.328Z,98838.90
2023-05-16T00:58:31.645Z,98837.16
2023-05-16T01:00:58.164Z,98843.41
2023-05-16T01:03:24.789Z,98841.48
2023-05-16T01:05:53.146Z,98839.76
2023-05-16T01:08:20.732Z,98835.16
2023-05-16T01:11:00.159Z,98835.23
2023-05-16T01:13:33.074Z,98829.68
2023-05-16T01:16:04.486Z,98825.19
2023-05-16T01:18:41.634Z,98831.39
2023-05-16T01:21:15.077Z,98829.02
2023-05-16T01:23:52.319Z,98830.88
2023-05-16T01:26:23.353Z,98829.68
2023-05-16T01:28:51.001Z,98828.02
2023-05-16T01:31:19.073Z,98825.21
2023-05-16T01:33:45.944Z,98822.27
2023-05-16T01:36:21.875Z,98821.70
2023-05-16T01:38:56.593Z,98820.02
2023-05-16T01:41:46.177Z,98821.60
2023-05-16T01:44:17.988Z,98818.42
2023-05-16T01:46:45.684Z,98814.69
2023-05-16T01:49:46.281Z,98814.08
2023-05-16T01:52:20.318Z,98815.25
2023-05-16T01:54:47.663Z,98815.43
2023-05-16T01:57:14.221Z,98811.36
2023-05-16T01:59:42.166Z,98813.23
2023-05-16T02:02:10.475Z,98804.39
2023-05-16T02:04:37.897Z,98801.02
2023-05-16T02:07:04.771Z,98800.20
2023-05-16T02:09:31.938Z,98802.73
2023-05-16T02:11:59.983Z,98809.11
2023-05-16T02:14:26.554Z,98806.55
2023-05-16T02:16:53.312Z,98806.70
2023-05-16T02:19:20.620Z,98806.11
2023-05-16T02:21:47.369Z,98807.36
2023-05-16T02:24:13.905Z,98803.80
2023-05-16T02:26:40.480Z,98802.23
2023-05-16T02:29:07.129Z,98799.55
2023-05-16T02:31:36.933Z,98794.59
2023-05-16T02:34:03.562Z,98796.35
2023-05-16T02:36:30.269Z,98799.17
2023-05-16T02:38:57.139Z,98806.57
2023-05-16T02:41:24.368Z,98804.50
2023-05-16T02:43:51.075Z,98805.22
2023-05-16T02:46:25.856Z,98807.50
2023-05-16T02:48:52.882Z,98808.59
2023-05-16T02:51:20.323Z,98804.21
2023-05-16T02:53:47.002Z,98799.21
2023-05-16T02:56:13.867Z,98794.64
2023-05-16T02:58:41.561Z,98793.94
2023-05-16T03:01:09.020Z,98796.88
2023-05-16T03:03:36.450Z,98796.83
2023-05-16T03:06:03.398Z,98797.39
2023-05-16T03:08:30.173Z,98797.53
2023-05-16T03:10:57.744Z,98797.47
2023-05-16T03:13:24.593Z,98802.51
2023-05-16T03:15:52.125Z,98797.80
2023-05-16T03:18:18.676Z,98795.86
2023-05-16T03:20:45.289Z,98793.76
2023-05-16T03:23:12.166Z,98793.09
2023-05-16T03:25:39.174Z,98790.77
2023-05-16T03:28:07.466Z,98789.73
2023-05-16T03:30:34.471Z,98790.16
2023-05-16T03:33:01.295Z,98793.73
2023-05-16T03:35:28.405Z,98794.87
2023-05-16T03:37:55.559Z,98792.63
2023-05-16T03:40:22.224Z,98794.73
2023-05-16T03:42:48.770Z,98801.46
2023-05-16T03:45:15.357Z,98805.00
2023-05-16T03:47:42.193Z,98806.29
2023-05-16T03:50:09.353Z,98809.40
2023-05-16T03:52:36.390Z,98811.73
2023-05-16T03:55:03.663Z,98811.04
2023-05-16T03:57:31.242Z,98815.19
2023-05-16T03:59:57.819Z,98820.38
2023-05-16T04:02:24.521Z,98824.13
2023-05-16T04:04:51.270Z,98824.20
2023-05-16T04:07:20.324Z,98832.23
2023-05-16T04:09:48.462Z,98833.59
2023-05-16T04:12:15.227Z,98833.95
2023-05-16T04:14:42.091Z,98841.02
2023-05-16T04:18:52.497Z,98850.36
2023-05-16T04:21:19.435Z,98858.48
2023-05-16T04:23:46.156Z,98859.29
2023-05-16T04:26:14.594Z,98859.80
2023-05-16T04:28:41.659Z,98864.59
2023-05-16T04:31:08.505Z,98861.79
2023-05-16T04:33:35.395Z,98864.10
2023-05-16T04:36:02.522Z,98861.68
2023-05-16T04:38:29.312Z,98857.63
2023-05-16T04:40:56.130Z,98863.65
2023-05-16T04:43:22.904Z,98865.80
2023-05-16T04:45:50.792Z,98863.02
2023-05-16T04:48:17.566Z,98866.65
2023-05-16T04:50:44.389Z,98873.36
2023-05-16T04:53:11.082Z,98873.14
2023-05-16T04:55:37.844Z,98872.02
2023-05-16T04:58:04.573Z,98875.36
2023-05-16T05:00:31.360Z,98875.11
2023-05-16T05:02:58.091Z,98866.14
2023-05-16T05:05:25.035Z,98870.05
2023-05-16T05:07:52.564Z,98876.52
2023-05-16T05:10:19.369Z,98873.48
2023-05-16T05:12:46.148Z,98871.25
2023-05-16T05:15:13.595Z,98873.38
2023-05-16T05:17:40.416Z,98876.41
2023-05-16T05:20:08.742Z,98870.54
2023-05-16T05:22:35.484Z,98864.30
2023-05-16T05:25:02.190Z,98853.38
2023-05-16T05:27:29.093Z,98848.31
2023-05-16T05:29:56.206Z,98848.82
2023-05-16T05:32:22.901Z,98851.45
2023-05-16T05:34:49.788Z,98855.80
2023-05-16T05:37:16.488Z,98862.61
2023-05-16T05:39:43.185Z,98858.89
2023-05-16T05:42:09.932Z,98867.34
2023-05-16T05:44:37.984Z,98872.81
2023-05-16T05:47:05.930Z,98877.35
2023-05-16T05:49:32.694Z,98879.44
2023-05-16T05:51:59.477Z,98879.08
2023-05-16T05:54:26.135Z,98882.57
2023-05-16T05:56:52.896Z,98878.66
2023-05-16T05:59:19.670Z,98877.34
2023-05-16T06:01:46.973Z,98884.20
2023-05-16T06:04:13.742Z,98881.73
2023-05-16T06:06:40.680Z,98880.36
2023-05-16T06:09:07.370Z,98870.96
2023-05-16T06:11:34.161Z,98871.13
2023-05-16T06:14:00.971Z,98873.91
2023-05-16T06:16:27.786Z,98871.65
2023-05-16T06:18:54.792Z,98870.52
2023-05-16T06:21:21.529Z,98866.09
2023-05-16T06:23:48.256Z,98861.90
2023-05-16T06:26:15.026Z,98858.41
2023-05-16T06:28:41.730Z,98855.40
2023-05-16T06:31:08.556Z,98853.66
2023-05-16T06:33:35.367Z,98850.30
2023-05-16T06:36:02.095Z,98853.03
2023-05-16T06:38:29.286Z,98853.40
2023-05-16T06:40:56.034Z,98854.33
2023-05-16T06:43:23.357Z,98850.35
2023-05-16T06:45:50.186Z,98850.35
2023-05-16T06:48:18.369Z,98851.84
2023-05-16T06:50:49.433Z,98849.92
2023-05-16T06:53:16.205Z,98849.30
2023-05-16T06:55:42.995Z,98844.71
2023-05-16T06:58:09.877Z,98837.02
2023-05-16T07:00:37.732Z,98835.27
2023-05-16T07:03:04.804Z,98831.75
2023-05-16T07:05:31.727Z,98825.83
2023-05-16T07:07:58.530Z,98829.98
2023-05-16T07:10:25.862Z,98830.02
2023-05-16T07:12:52.673Z,98837.66
2023-05-16T07:15:19.597Z,98839.51
2023-05-16T07:17:46.397Z,98843.30
2023-05-16T07:20:14.824Z,98845.65
2023-05-16T07:22:41.662Z,98859.14
2023-05-16T07:25:12.706Z,98852.93
2023-05-16T07:27:44.950Z,98855.11
2023-05-16T07:30:13.150Z,98857.41
2023-05-16T07:32:40.477Z,98857.10
2023-05-16T07:35:07.938Z,98856.64
2023-05-16T07:37:35.224Z,98857.92
2023-05-16T07:40:02.330Z,98858.43
2023-05-16T07:42:29.574Z,98859.27
2023-05-16T07:44:57.171Z,98862.85
2023-05-16T07:47:24.459Z,98866.05
2023-05-16T07:49:51.320Z,98867.11
2023-05-16T07:52:18.177Z,98874.59
2023-05-16T07:54:46.942Z,98878.66
2023-05-16T07:57:17.516Z,98882.85
2023-05-16T07:59:45.022Z,98886.05
2023-05-16T08:02:11.987Z,98888.58
2023-05-16T08:04:38.981Z,98887.27
2023-05-16T08:07:06.226Z,98893.60
2023-05-16T08:09:33.366Z,98892.16
2023-05-16T08:12:03.754Z,98897.83
2023-05-16T08:14:33.969Z,98894.14
2023-05-16T08:17:00.772Z,98892.04
2023-05-16T08:19:27.887Z,98897.34
2023-05-16T08:21:55.010Z,98894.41
2023-05-16T08:24:21.810Z,98891.69
2023-05-16T08:26:48.787Z,98897.90
2023-05-16T08:29:15.757Z,98896.81
2023-05-16T08:31:42.596Z,98897.96
2023-05-16T08:34:10.522Z,98896.42
2023-05-16T08:36:37.872Z,98890.27
2023-05-16T08:39:05.122Z,98889.98
2023-05-16T08:41:31.965Z,98889.22
2023-05-16T08:43:58.835Z,98882.65
2023-05-16T08:46:25.656Z,98878.74
2023-05-16T08:48:53.774Z,98879.35
2023-05-16T08:51:20.919Z,98871.64
2023-05-16T08:53:55.086Z,98870.84
2023-05-16T08:56:22.462Z,98870.55
2023-05-16T08:58:50.693Z,98866.33
2023-05-16T09:01:17.486Z,98871.66
2023-05-16T09:03:44.344Z,98869.03
2023-05-16T09:06:11.406Z,98866.34
2023-05-16T09:08:38.408Z,98871.45
2023-05-16T09:11:05.535Z,98872.70
2023-05-16T09:13:32.310Z,98871.02
2023-05-16T09:16:16.056Z,98870.63
2023-05-16T09:18:44.229Z,98877.58
2023-05-16T09:21:11.584Z,98881.08
2023-05-16T09:23:38.512Z,98878.84
2023-05-16T09:26:05.436Z,98876.20
2023-05-16T09:28:32.200Z,98874.19
2023-05-16T09:31:00.153Z,98868.73
2023-05-16T09:33:27.400Z,98877.71
2023-05-16T09:35:58.425Z,98874.41
2023-05-16T09:38:26.587Z,98880.83
2023-05-16T09:40:54.359Z,98880.92
2023-05-16T09:43:29.686Z,98884.09
2023-05-16T09:45:59.155Z,98883.98
2023-05-16T09:48:28.588Z,98876.44
2023-05-16T09:50:56.103Z,98886.13
2023-05-16T09:53:30.455Z,98885.69
2023-05-16T09:56:08.435Z,98879.16
2023-05-16T09:58:36.315Z,98884.35
2023-05-16T10:01:04.939Z,98886.11
2023-05-16T10:03:34.692Z,98874.61
2023-05-16T10:06:01.761Z,98880.02
2023-05-16T10:08:28.605Z,98884.89
2023-05-16T10:10:56.642Z,98889.27
2023-05-16T10:13:25.032Z,98885.31
2023-05-16T10:15:51.843Z,98886.73
2023-05-16T10:18:19.839Z,98883.25
2023-05-16T10:20:49.237Z,98885.79
2023-05-16T10:23:20.439Z,98880.53
2023-05-16T10:25:48.830Z,98883.78
2023-05-16T10:28:16.755Z,98880.31
2023-05-16T10:30:45.849Z,98881.06
2023-05-16T10:33:17.229Z,98878.46
2023-05-16T10:35:44.345Z,98879.00
2023-05-16T10:38:12.619Z,98877.04
2023-05-16T10:40:40.133Z,98872.59
2023-05-16T10:43:08.666Z,98870.79
2023-05-16T10:45:44.673Z,98867.73
2023-05-16T10:48:12.656Z,98869.77
2023-05-16T10:50:44.072Z,98872.21
2023-05-16T10:53:12.389Z,98873.41
2023-05-16T10:55:39.946Z,98879.09
2023-05-16T10:58:06.712Z,98877.73
2023-05-16T11:00:33.483Z,98871.27
2023-05-16T11:03:06.747Z,98875.37
2023-05-16T11:05:34.095Z,98873.88
2023-05-16T11:08:07.438Z,98872.79
2023-05-16T11:10:34.287Z,98881.15
2023-05-16T11:13:07.944Z,98877.00
2023-05-16T11:15:34.903Z,98869.42
2023-05-16T11:18:09.382Z,98864.77
2023-05-16T11:20:39.928Z,98864.46
2023-05-16T11:23:19.483Z,98863.55
2023-05-16T11:25:46.913Z,98864.77
2023-05-16T11:28:14.556Z,98865.89
2023-05-16T11:30:48.684Z,98869.55
2023-05-16T11:33:16.485Z,98863.39
2023-05-16T11:35:43.633Z,98868.14
2023-05-16T11:38:16.716Z,98865.38
2023-05-16T11:40:44.602Z,98867.62
2023-05-16T11:43:12.316Z,98868.63
2023-05-16T11:45:39.215Z,98866.92
2023-05-16T11:48:06.452Z,98866.08
2023-05-16T11:50:34.443Z,98870.61
2023-05-16T11:53:01.587Z,98872.65
2023-05-16T11:55:41.365Z,98871.73
2023-05-16T11:58:09.494Z,98873.98
2023-05-16T12:00:36.559Z,98873.30
2023-05-16T12:03:05.514Z,98872.96
2023-05-16T12:05:34.761Z,98871.36
2023-05-16T12:08:02.973Z,98868.36
2023-05-16T12:10:32.127Z,98867.02
2023-05-16T12:12:59.298Z,98868.16
2023-05-16T12:15:26.340Z,98867.63
2023-05-16T12:17:53.657Z,98872.05
2023-05-16T12:20:20.399Z,98873.87
2023-05-16T12:22:47.197Z,98871.94
2023-05-16T12:25:30.225Z,98875.73
2023-05-16T12:28:01.616Z,98880.64
2023-05-16T12:30:29.742Z,98877.48
2023-05-16T12:33:01.052Z,98877.48
2023-05-16T12:35:33.312Z,98877.95
2023-05-16T12:38:01.332Z,98878.77
2023-05-16T12:40:29.831Z,98875.45
2023-05-16T12:42:56.958Z,98877.42
2023-05-16T12:45:24.005Z,98875.77
2023-05-16T12:47:51.428Z,98870.86
2023-05-16T12:50:18.267Z,98871.17
2023-05-16T12:52:52.016Z,98866.30
2023-05-16T12:55:19.738Z,98867.86
2023-05-16T12:57:48.022Z,98864.17
2023-05-16T13:00:16.713Z,98864.61
2023-05-16T13:02:43.597Z,98857.44
2023-05-16T13:05:10.504Z,98860.61
2023-05-16T13:07:39.737Z,98853.55
2023-05-16T13:10:10.871Z,98851.31
2023-05-16T13:12:39.273Z,98856.59
2023-05-16T13:15:10.599Z,98857.83
2023-05-16T13:17:40.801Z,98862.10
2023-05-16T13:20:13.851Z,98862.31
2023-05-16T13:22:41.288Z,98860.56
2023-05-16T13:25:09.154Z,98855.43
2023-05-16T13:27:36.137Z,98856.77
2023-05-16T13:30:04.462Z,98859.91
2023-05-16T13:32:31.288Z,98858.96
2023-05-16T13:34:58.113Z,98857.51
2023-05-16T13:37:24.848Z,98854.35
2023-05-16T13:39:52.743Z,98852.75
2023-05-16T13:42:19.508Z,98851.52
2023-05-16T13:44:46.230Z,98848.86
2023-05-16T13:47:12.958Z,98846.13
2023-05-16T13:49:39.755Z,98842.96
2023-05-16T13:52:06.829Z,98844.50
2023-05-16T13:54:33.716Z,98847.36
2023-05-16T13:57:01.717Z,98842.64
2023-05-16T13:59:48.798Z,98849.15
2023-05-16T14:02:15.309Z,98849.66
2023-05-16T14:04:41.959Z,98850.09
2023-05-16T14:07:09.001Z,98853.79
2023-05-16T14:09:39.549Z,98854.16
2023-05-16T14:12:07.504Z,98855.91
2023-05-16T14:14:35.218Z,98853.56
2023-05-16T14:17:02.097Z,98857.15
2023-05-16T14:19:28.939Z,98859.09
2023-05-16T14:21:56.137Z,98862.65
2023-05-16T14:24:23.331Z,98859.13
2023-05-16T14:26:50.391Z,98857.05
2023-05-16T14:29:17.148Z,98855.48
2023-05-16T14:31:43.963Z,98858.84
2023-05-16T14:34:10.726Z,98862.33
2023-05-16T14:36:37.802Z,98863.31
2023-05-16T14:39:05.553Z,98861.46
2023-05-16T14:41:32.340Z,98857.96
2023-05-16T14:43:59.155Z,98853.98
2023-05-16T14:46:26.017Z,98856.63
2023-05-16T14:48:53.176Z,98859.46
2023-05-16T14:51:20.043Z,98858.83
2023-05-16T14:53:47.424Z,98859.54
2023-05-16T14:56:14.417Z,98854.46
2023-05-16T14:58:41.171Z,98851.95
2023-05-16T15:01:08.063Z,98853.73
2023-05-16T15:03:46.813Z,98857.15
2023-05-16T15:06:18.040Z,98854.20
2023-05-16T15:08:44.931Z,98850.83
2023-05-16T15:11:11.877Z,98848.33
2023-05-16T15:13:39.278Z,98847.48
2023-05-16T15:16:06.303Z,98854.20
2023-05-16T15:18:33.236Z,98854.63
2023-05-16T15:21:00.182Z,98858.42
2023-05-16T15:23:26.941Z,98856.80
2023-05-16T15:25:54.766Z,98856.87
2023-05-16T15:28:22.762Z,98859.25
2023-05-16T15:30:51.371Z,98857.35
2023-05-16T15:33:19.265Z,98857.40
2023-05-16T15:35:46.242Z,98857.56
2023-05-16T15:38:13.117Z,98861.30
2023-05-16T15:40:39.947Z,98854.81
2023-05-16T15:43:07.191Z,98857.23
2023-05-16T15:45:34.019Z,98851.92
2023-05-16T15:48:02.312Z,98861.34
2023-05-16T15:50:29.263Z,98857.44
2023-05-16T15:52:58.391Z,98854.29
2023-05-16T15:55:25.507Z,98857.81
2023-05-16T15:57:56.932Z,98855.20
2023-05-16T16:00:25.035Z,98852.01
2023-05-16T16:02:52.365Z,98849.55
2023-05-16T16:05:19.243Z,98855.97
2023-05-16T16:07:46.131Z,98854.52
2023-05-16T16:10:12.926Z,98855.91
2023-05-16T16:12:39.695Z,98852.91
2023-05-16T16:15:07.792Z,98857.08
2023-05-16T16:17:34.607Z,98855.69
2023-05-16T16:20:01.388Z,98860.05
2023-05-16T16:22:28.174Z,98862.61
2023-05-16T16:24:54.908Z,98863.31
2023-05-16T16:27:21.679Z,98864.37
2023-05-16T16:29:48.560Z,98860.67
2023-05-16T16:32:15.345Z,98857.18
2023-05-16T16:36:17.058Z,98853.20
2023-05-16T16:38:43.822Z,98850.79
2023-05-16T16:41:10.562Z,98852.98
2023-05-16T16:43:40.154Z,98858.13
2023-05-16T16:46:07.516Z,98861.38
2023-05-16T16:48:34.691Z,98860.15
2023-05-16T16:51:01.994Z,98858.86
2023-05-16T16:53:29.078Z,98858.21
2023-05-16T16:55:55.847Z,98860.14
2023-05-16T16:58:22.630Z,98857.36
2023-05-16T17:00:49.510Z,98860.68
2023-05-16T17:03:16.608Z,98860.51
2023-05-16T17:05:44.655Z,98859.71
2023-05-16T17:08:12.211Z,98861.75
2023-05-16T17:10:39.390Z,98865.31
2023-05-16T17:13:10.536Z,98864.56
2023-05-16T17:15:37.978Z,98863.92
2023-05-16T17:18:08.419Z,98866.11
2023-05-16T17:20:35.984Z,98861.47
2023-05-16T17:23:03.364Z,98864.16
2023-05-16T17:25:30.405Z,98860.83
2023-05-16T17:27:57.437Z,98861.30
2023-05-16T17:30:24.268Z,98862.86
2023-05-16T17:32:51.749Z,98867.12
2023-05-16T17:35:20.238Z,98866.67
2023-05-16T17:37:48.115Z,98864.83
2023-05-16T17:40:17.431Z,98865.62
2023-05-16T17:42:45.231Z,98868.41
2023-05-16T17:45:12.924Z,98868.69
2023-05-16T17:47:40.195Z,98870.65
2023-05-16T17:50:09.779Z,98869.79
2023-05-16T17:52:39.805Z,98874.83
2023-05-16T17:55:08.571Z,98874.06
2023-05-16T17:57:35.431Z,98870.36
2023-05-16T18:00:05.207Z,98873.23
2023-05-16T18:02:32.217Z,98873.64
2023-05-16T18:05:00.598Z,98870.20
2023-05-16T18:07:27.487Z,98874.77
2023-05-16T18:09:54.537Z,98877.13
2023-05-16T18:12:21.524Z,98878.75
2023-05-16T18:14:48.353Z,98878.30
2023-05-16T18:17:15.197Z,98877.42
2023-05-16T18:19:42.070Z,98881.61
2023-05-16T18:22:10.264Z,98881.58
2023-05-16T18:24:37.588Z,98878.42
2023-05-16T18:27:04.554Z,98882.30
2023-05-16T18:29:31.348Z,98885.38
2023-05-16T18:31:58.190Z,98884.71
2023-05-16T18:34:24.960Z,98884.59
2023-05-16T18:36:52.847Z,98885.00
2023-05-16T18:39:20.564Z,98884.86
2023-05-16T18:41:48.386Z,98890.28
2023-05-16T18:44:17.392Z,98893.11
2023-05-16T18:46:46.049Z,98889.79
2023-05-16T18:49:14.219Z,98890.72
2023-05-16T18:51:41.143Z,98891.75
2023-05-16T18:54:07.941Z,98888.98
2023-05-16T18:56:34.737Z,98886.80
2023-05-16T18:59:01.538Z,98887.01
2023-05-16T19:01:28.713Z,98883.42
2023-05-16T19:06:22.382Z,98885.15
2023-05-16T19:08:49.140Z,98887.80
2023-05-16T19:11:16.885Z,98885.77
2023-05-16T19:13:44.851Z,98884.27
2023-05-16T19:16:11.601Z,98882.45
2023-05-16T19:18:38.735Z,98885.05
2023-05-16T19:21:07.734Z,98883.17
2023-05-16T19:23:34.535Z,98886.90
2023-05-16T19:26:01.455Z,98883.73
2023-05-16T19:28:28.323Z,98884.16
2023-05-16T19:30:55.152Z,98885.26
2023-05-16T19:33:22.955Z,98884.09
2023-05-16T19:35:51.614Z,98886.63
2023-05-16T19:38:20.033Z,98884.55
2023-05-16T19:40:47.144Z,98885.45
2023-05-16T19:43:13.983Z,98887.31
2023-05-16T19:45:40.808Z,98884.86
2023-05-16T19:48:08.360Z,98884.52
2023-05-16T19:50:36.720Z,98883.19
2023-05-16T19:53:04.185Z,98884.19
2023-05-16T19:55:31.427Z,98879.25
2023-05-16T19:57:58.637Z,98880.12
2023-05-16T20:00:25.542Z,98879.15
2023-05-16T20:02:52.514Z,98878.16
2023-05-16T20:05:22.894Z,98872.02
2023-05-16T20:07:50.007Z,98868.27
2023-05-16T20:10:21.175Z,98877.27
2023-05-16T20:12:48.903Z,98878.48
2023-05-16T20:15:16.320Z,98880.73
2023-05-16T20:17:44.267Z,98878.70
2023-05-16T20:20:11.268Z,98877.63
2023-05-16T20:22:41.882Z,98879.20
2023-05-16T20:25:10.634Z,98880.83
2023-05-16T20:27:37.883Z,98882.50
2023-05-16T20:30:06.678Z,98877.58
2023-05-16T20:32:33.740Z,98879.00
2023-05-16T20:35:01.328Z,98876.70
2023-05-16T20:37:29.081Z,98876.88
2023-05-16T20:39:55.852Z,98876.96
2023-05-16T20:42:22.614Z,98879.80
2023-05-16T20:44:49.444Z,98877.52
2023-05-16T20:47:17.195Z,98874.33
2023-05-16T20:49:43.952Z,98876.21
2023-05-16T20:52:10.887Z,98874.73
2023-05-16T20:54:37.808Z,98869.51
2023-05-16T20:57:05.018Z,98872.83
2023-05-16T20:59:32.399Z,98874.61
2023-05-16T21:02:00.431Z,98868.79
2023-05-16T21:04:27.194Z,98872.08
2023-05-16T21:06:54.971Z,98871.20
2023-05-16T21:09:21.764Z,98870.19
2023-05-16T21:11:48.629Z,98867.78
2023-05-16T21:14:15.373Z,98866.77
2023-05-16T21:16:42.125Z,98866.15
2023-05-16T21:19:09.046Z,98864.67
2023-05-16T21:21:36.131Z,98863.60
2023-05-16T21:24:03.868Z,98864.22
2023-05-16T21:26:30.637Z,98861.29
2023-05-16T21:28:57.446Z,98861.52
2023-05-16T21:31:24.216Z,98858.26
2023-05-16T21:33:52.512Z,98859.90
2023-05-16T21:36:20.314Z,98860.59
2023-05-16T21:38:47.244Z,98858.31
2023-05-16T21:41:14.594Z,98856.67
2023-05-16T21:43:41.487Z,98857.10
2023-05-16T21:46:08.304Z,98852.76
2023-05-16T21:48:35.616Z,98853.04
2023-05-16T21:51:03.429Z,98852.64
2023-05-16T21:53:30.374Z,98854.20
2023-05-16T21:55:57.106Z,98852.55
2023-05-16T21:58:25.441Z,98854.11
2023-05-16T22:00:52.405Z,98852.62
2023-05-16T22:03:21.152Z,98850.95
2023-05-16T22:05:48.187Z,98854.90
2023-05-16T22:08:16.077Z,98854.77
2023-05-16T22:10:42.875Z,98858.63
2023-05-16T22:13:09.701Z,98856.45
2023-05-16T22:15:36.477Z,98855.41
2023-05-16T22:18:04.449Z,98858.48
2023-05-16T22:20:31.450Z,98858.96
2023-05-16T22:22:58.353Z,98862.96
2023-05-16T22:25:25.153Z,98861.02
2023-05-16T22:27:52.114Z,98865.69
2023-05-16T22:30:18.929Z,98865.73
2023-05-16T22:32:46.859Z,98860.64
2023-05-16T22:35:14.102Z,98864.94
2023-05-16T22:37:41.959Z,98869.15
2023-05-16T22:40:09.284Z,98872.73
2023-05-16T22:42:36.008Z,98873.74
2023-05-16T22:45:04.038Z,98874.16
2023-05-16T22:47:31.098Z,98878.36
2023-05-16T22:49:57.994Z,98878.28
2023-05-16T22:52:24.983Z,98876.73
2023-05-16T22:54:51.835Z,98877.58
2023-05-16T22:57:18.700Z,98874.84
2023-05-16T22:59:45.715Z,98877.05
2023-05-16T23:02:12.684Z,98877.22
2023-05-16T23:04:39.481Z,98877.86
2023-05-16T23:07:06.328Z,98875.84
2023-05-16T23:09:33.100Z,98881.16
2023-05-16T23:11:59.948Z,98879.84
2023-05-16T23:14:26.714Z,98879.75
2023-05-16T23:16:53.466Z,98881.16
2023-05-16T23:19:20.361Z,98872.83
2023-05-16T23:21:47.393Z,98871.89
2023-05-16T23:24:14.162Z,98875.02
2023-05-16T23:26:40.933Z,98874.73
2023-05-16T23:29:07.910Z,98871.35
2023-05-16T23:31:34.615Z,98874.70
2023-05-16T23:34:02.393Z,98873.48
2023-05-16T23:36:29.276Z,98875.33
2023-05-16T23:38:56.057Z,98878.55
2023-05-16T23:41:22.845Z,98878.58
2023-05-16T23:43:49.724Z,98879.45
2023-05-16T23:46:16.440Z,98879.41
2023-05-16T23:48:43.350Z,98883.27
2023-05-16T23:51:10.540Z,98883.90
2023-05-16T23:53:37.301Z,98884.33
2023-05-16T23:56:04.213Z,98885.80
2023-05-16T23:58:31.078Z,98886.24
